createdAt,value
2023-07-25T00:01:05.970Z,14.10
2023-07-25T00:03:33.088Z,14.00
2023-07-25T00:06:04.865Z,14.00
2023-07-25T00:08:32.963Z,14.00
2023-07-25T00:11:00.645Z,14.00
2023-07-25T00:13:28.580Z,13.90
2023-07-25T00:15:55.535Z,13.90
2023-07-25T00:18:22.424Z,13.90
2023-07-25T00:20:49.379Z,13.90
2023-07-25T00:23:16.204Z,13.90
2023-07-25T00:25:43.070Z,13.80
2023-07-25T00:28:09.971Z,13.80
2023-07-25T00:30:36.733Z,13.80
2023-07-25T00:33:03.710Z,13.80
2023-07-25T00:35:30.436Z,13.70
2023-07-25T00:37:57.335Z,13.80
2023-07-25T00:40:24.084Z,13.80
2023-07-25T00:42:57.518Z,13.80
2023-07-25T00:45:26.034Z,13.70
2023-07-25T00:47:53.922Z,13.70
2023-07-25T00:50:20.972Z,13.70
2023-07-25T00:52:48.338Z,13.70
2023-07-25T00:55:15.104Z,13.70
2023-07-25T00:57:41.911Z,13.60
2023-07-25T01:00:09.005Z,13.60
2023-07-25T01:02:36.009Z,13.60
2023-07-25T01:05:03.057Z,13.60
2023-07-25T01:07:31.260Z,13.60
2023-07-25T01:09:58.112Z,13.60
2023-07-25T01:12:25.700Z,13.50
2023-07-25T01:14:52.610Z,13.50
2023-07-25T01:17:23.264Z,13.40
2023-07-25T01:19:51.012Z,13.40
2023-07-25T01:22:19.371Z,13.30
2023-07-25T01:24:47.823Z,13.20
2023-07-25T01:27:15.928Z,13.20
2023-07-25T01:29:42.672Z,13.20
2023-07-25T01:32:10.256Z,13.10
2023-07-25T01:34:37.150Z,13.10
2023-07-25T01:37:04.612Z,13.10
2023-07-25T01:39:31.366Z,13.10
2023-07-25T01:41:58.174Z,13.00
2023-07-25T01:44:25.048Z,13.00
2023-07-25T01:46:51.860Z,12.90
2023-07-25T01:49:18.722Z,12.90
2023-07-25T01:51:45.485Z,12.80
2023-07-25T01:54:12.353Z,12.80
2023-07-25T01:56:39.105Z,12.70
2023-07-25T01:59:06.845Z,12.80
2023-07-25T02:01:34.037Z,12.70
2023-07-25T02:04:01.056Z,12.80
2023-07-25T02:06:27.993Z,12.70
2023-07-25T02:08:54.754Z,12.80
2023-07-25T02:11:21.570Z,12.70
2023-07-25T02:13:48.322Z,12.70
2023-07-25T02:16:15.160Z,12.70
2023-07-25T02:18:42.053Z,12.60
2023-07-25T02:21:08.809Z,12.60
2023-07-25T02:23:35.658Z,12.60
2023-07-25T02:26:02.649Z,12.60
2023-07-25T02:28:29.389Z,12.60
2023-07-25T02:30:56.119Z,12.50
2023-07-25T02:33:22.889Z,12.50
2023-07-25T02:35:49.581Z,12.50
2023-07-25T02:38:16.787Z,12.50
2023-07-25T02:40:44.991Z,12.50
2023-07-25T02:43:11.808Z,12.50
2023-07-25T02:45:38.810Z,12.40
2023-07-25T02:48:05.950Z,12.40
2023-07-25T02:50:32.732Z,12.40
2023-07-25T02:52:59.474Z,12.40
2023-07-25T02:55:27.202Z,12.40
2023-07-25T02:57:54.002Z,12.40
2023-07-25T03:00:20.851Z,12.30
2023-07-25T03:02:47.709Z,12.30
2023-07-25T03:05:16.396Z,12.40
2023-07-25T03:07:43.391Z,12.30
2023-07-25T03:10:10.448Z,12.30
2023-07-25T03:12:37.304Z,12.30
2023-07-25T03:15:04.466Z,12.40
2023-07-25T03:17:31.966Z,12.20
2023-07-25T03:19:58.940Z,12.20
2023-07-25T03:22:25.711Z,12.20
2023-07-25T03:24:52.864Z,12.20
2023-07-25T03:27:20.150Z,12.10
2023-07-25T03:29:46.976Z,12.10
2023-07-25T03:32:13.797Z,12.10
2023-07-25T03:34:40.754Z,12.10
2023-07-25T03:37:07.568Z,12.10
2023-07-25T03:39:34.871Z,12.10
2023-07-25T03:42:03.257Z,12.10
2023-07-25T03:44:30.041Z,12.10
2023-07-25T03:46:56.822Z,12.10
2023-07-25T03:49:23.578Z,12.10
2023-07-25T03:51:50.511Z,12.10
2023-07-25T03:54:19.179Z,12.10
2023-07-25T03:56:46.086Z,12.30
2023-07-25T03:59:12.921Z,12.20
2023-07-25T04:01:39.800Z,12.20
2023-07-25T04:04:06.747Z,12.30
2023-07-25T04:06:33.630Z,12.30
2023-07-25T04:09:00.414Z,12.30
2023-07-25T04:11:27.217Z,12.30
2023-07-25T04:13:54.044Z,12.40
2023-07-25T04:16:20.872Z,12.40
2023-07-25T04:18:48.172Z,12.50
2023-07-25T04:21:14.961Z,12.60
2023-07-25T04:23:42.351Z,12.60
2023-07-25T04:26:09.115Z,12.70
2023-07-25T04:28:35.940Z,12.70
2023-07-25T04:31:02.764Z,12.80
2023-07-25T04:33:29.518Z,12.90
2023-07-25T04:38:23.476Z,13.00
2023-07-25T04:40:50.264Z,13.00
2023-07-25T04:43:16.948Z,13.20
2023-07-25T04:45:43.998Z,13.20
2023-07-25T04:48:10.821Z,13.20
2023-07-25T04:50:37.555Z,13.30
2023-07-25T04:53:04.885Z,13.30
2023-07-25T04:55:32.999Z,13.30
2023-07-25T04:57:59.729Z,13.40
2023-07-25T05:00:29.808Z,13.50
2023-07-25T05:02:57.759Z,13.60
2023-07-25T05:05:24.896Z,13.60
2023-07-25T05:07:51.660Z,13.60
2023-07-25T05:10:18.394Z,13.60
2023-07-25T05:12:45.203Z,13.80
2023-07-25T05:15:12.300Z,13.80
2023-07-25T05:17:39.237Z,13.90
2023-07-25T05:20:06.797Z,13.90
2023-07-25T05:22:33.557Z,14.20
2023-07-25T05:25:00.408Z,14.30
2023-07-25T05:27:27.108Z,14.30
2023-07-25T05:29:53.933Z,14.40
2023-07-25T05:32:22.840Z,14.50
2023-07-25T05:34:49.867Z,14.60
2023-07-25T05:37:19.542Z,14.60
2023-07-25T05:39:46.346Z,14.70
2023-07-25T05:42:13.187Z,14.80
2023-07-25T05:44:39.954Z,14.80
2023-07-25T05:47:06.898Z,14.80
2023-07-25T05:49:33.618Z,14.90
2023-07-25T05:52:00.394Z,14.90
2023-07-25T05:54:28.452Z,15.00
2023-07-25T05:56:55.213Z,14.90
2023-07-25T05:59:22.306Z,15.00
2023-07-25T06:01:49.073Z,15.00
2023-07-25T06:04:16.650Z,15.00
2023-07-25T06:06:43.602Z,15.00
2023-07-25T06:09:10.459Z,15.10
2023-07-25T06:11:37.418Z,15.10
2023-07-25T06:14:04.554Z,15.10
2023-07-25T06:16:32.283Z,15.10
2023-07-25T06:18:59.078Z,15.10
2023-07-25T06:21:25.906Z,15.10
2023-07-25T06:23:52.709Z,15.10
2023-07-25T06:26:19.527Z,14.90
2023-07-25T06:28:46.307Z,15.00
2023-07-25T06:31:13.477Z,14.80
2023-07-25T06:33:40.282Z,14.80
2023-07-25T06:36:07.221Z,14.80
2023-07-25T06:38:34.017Z,14.80
2023-07-25T06:41:00.804Z,14.80
2023-07-25T06:43:27.561Z,14.70
2023-07-25T06:45:54.492Z,14.70
2023-07-25T06:48:21.278Z,14.70
2023-07-25T06:50:48.084Z,14.80
2023-07-25T06:53:14.820Z,14.80
2023-07-25T06:55:41.611Z,15.00
2023-07-25T06:58:08.380Z,15.00
2023-07-25T07:00:38.667Z,15.10
2023-07-25T07:03:06.473Z,15.20
2023-07-25T07:05:37.241Z,15.30
2023-07-25T07:08:04.795Z,15.30
2023-07-25T07:10:34.006Z,15.40
2023-07-25T07:13:00.904Z,15.50
2023-07-25T07:15:27.728Z,15.60
2023-07-25T07:17:54.941Z,15.50
2023-07-25T07:20:22.109Z,15.50
2023-07-25T07:22:48.972Z,15.50
2023-07-25T07:25:15.894Z,15.60
2023-07-25T07:27:42.741Z,15.70
2023-07-25T07:30:09.844Z,15.80
2023-07-25T07:32:36.712Z,15.90
2023-07-25T07:35:03.571Z,16.10
2023-07-25T07:37:31.777Z,16.20
2023-07-25T07:40:00.055Z,16.40
2023-07-25T07:42:26.970Z,16.60
2023-07-25T07:44:53.984Z,16.70
2023-07-25T07:47:20.926Z,17.10
2023-07-25T07:49:47.708Z,17.70
2023-07-25T07:52:20.103Z,18.80
2023-07-25T07:54:57.200Z,19.70
2023-07-25T07:57:24.046Z,20.80
2023-07-25T07:59:50.909Z,21.60
2023-07-25T08:02:17.833Z,22.10
2023-07-25T08:04:45.081Z,22.50
2023-07-25T08:07:12.141Z,23.00
2023-07-25T08:09:39.053Z,23.20
2023-07-25T08:12:06.791Z,23.10
2023-07-25T08:14:33.643Z,23.00
2023-07-25T08:17:00.488Z,23.30
2023-07-25T08:19:27.454Z,23.80
2023-07-25T08:24:22.473Z,24.90
2023-07-25T08:26:49.485Z,25.00
2023-07-25T08:29:16.446Z,24.70
2023-07-25T08:31:43.406Z,24.40
2023-07-25T08:34:10.161Z,23.70
2023-07-25T08:36:36.953Z,23.00
2023-07-25T08:39:03.797Z,22.30
2023-07-25T08:41:35.893Z,21.80
2023-07-25T08:44:03.401Z,21.50
2023-07-25T08:46:33.497Z,21.10
2023-07-25T08:49:06.561Z,20.80
2023-07-25T08:51:35.860Z,20.30
2023-07-25T08:54:19.281Z,20.10
2023-07-25T08:56:48.666Z,19.90
2023-07-25T08:59:15.881Z,19.80
2023-07-25T09:01:43.260Z,19.80
2023-07-25T09:04:12.086Z,20.30
2023-07-25T09:06:38.960Z,21.10
2023-07-25T09:09:06.233Z,21.50
2023-07-25T09:11:35.367Z,21.60
2023-07-25T09:14:02.777Z,21.70
2023-07-25T09:16:30.575Z,21.60
2023-07-25T09:18:57.843Z,21.40
2023-07-25T09:21:24.720Z,21.30
2023-07-25T09:23:59.312Z,21.60
2023-07-25T09:26:27.953Z,21.90
2023-07-25T09:29:00.719Z,22.30
2023-07-25T09:31:31.805Z,22.80
2023-07-25T09:33:58.907Z,23.20
2023-07-25T09:36:31.680Z,23.50
2023-07-25T09:38:59.851Z,23.70
2023-07-25T09:41:27.800Z,23.60
2023-07-25T09:44:00.664Z,23.60
2023-07-25T09:46:27.480Z,23.50
2023-07-25T09:48:54.359Z,23.50
2023-07-25T09:51:21.172Z,23.60
2023-07-25T09:53:53.177Z,23.60
2023-07-25T09:56:27.566Z,23.70
2023-07-25T10:01:26.272Z,23.90
2023-07-25T10:03:54.245Z,24.10
2023-07-25T10:06:21.914Z,24.00
2023-07-25T10:08:48.878Z,24.00
2023-07-25T10:11:16.421Z,23.50
2023-07-25T10:13:43.880Z,23.40
2023-07-25T10:16:15.276Z,23.30
2023-07-25T10:18:42.759Z,23.00
2023-07-25T10:21:13.830Z,23.00
2023-07-25T10:23:40.901Z,22.90
2023-07-25T10:26:17.831Z,23.00
2023-07-25T10:28:45.348Z,23.20
2023-07-25T10:31:26.439Z,23.20
2023-07-25T10:33:59.671Z,23.20
2023-07-25T10:36:27.373Z,23.20
2023-07-25T10:39:07.050Z,23.20
2023-07-25T10:41:34.214Z,23.20
2023-07-25T10:44:03.703Z,23.00
2023-07-25T10:46:33.591Z,22.80
2023-07-25T10:49:02.613Z,22.90
2023-07-25T10:51:53.121Z,23.00
2023-07-25T10:54:25.377Z,23.30
2023-07-25T10:57:15.712Z,23.30
2023-07-25T11:00:08.271Z,23.30
2023-07-25T11:02:40.407Z,23.90
2023-07-25T11:05:13.433Z,23.80
2023-07-25T11:07:40.915Z,23.60
2023-07-25T11:10:08.385Z,23.30
2023-07-25T11:12:35.324Z,23.20
2023-07-25T11:15:02.269Z,23.00
2023-07-25T11:17:29.315Z,22.90
2023-07-25T11:20:12.300Z,23.00
2023-07-25T11:22:39.291Z,22.90
2023-07-25T11:25:09.808Z,22.90
2023-07-25T11:27:42.453Z,22.90
2023-07-25T11:30:17.693Z,22.80
2023-07-25T11:32:49.723Z,22.80
2023-07-25T11:35:17.118Z,22.70
2023-07-25T11:37:48.751Z,22.60
2023-07-25T11:40:21.141Z,22.70
2023-07-25T11:42:50.223Z,22.70
2023-07-25T11:45:18.440Z,22.80
2023-07-25T11:47:50.376Z,22.80
2023-07-25T11:50:26.976Z,22.80
2023-07-25T11:52:56.318Z,22.90
2023-07-25T11:55:23.333Z,23.00
2023-07-25T11:57:50.234Z,23.20
2023-07-25T12:00:17.653Z,23.10
2023-07-25T12:02:45.013Z,23.00
2023-07-25T12:05:28.110Z,23.20
2023-07-25T12:08:04.311Z,23.30
2023-07-25T12:10:36.096Z,23.20
2023-07-25T12:13:04.853Z,22.90
2023-07-25T12:15:44.937Z,22.70
2023-07-25T12:18:31.665Z,22.70
2023-07-25T12:21:01.486Z,22.60
2023-07-25T12:23:39.513Z,22.60
2023-07-25T12:26:09.005Z,22.50
2023-07-25T12:28:42.980Z,22.40
2023-07-25T12:31:10.229Z,22.30
2023-07-25T12:33:37.268Z,22.20
2023-07-25T12:36:05.392Z,22.20
2023-07-25T12:38:32.390Z,22.20
2023-07-25T12:40:59.645Z,22.10
2023-07-25T12:43:26.464Z,22.10
2023-07-25T12:45:53.406Z,22.40
2023-07-25T12:48:20.295Z,22.70
2023-07-25T12:50:47.191Z,23.00
2023-07-25T12:53:14.022Z,23.00
2023-07-25T12:55:40.863Z,23.00
2023-07-25T12:58:07.792Z,22.90
2023-07-25T13:00:34.822Z,22.80
2023-07-25T13:03:01.773Z,22.80
2023-07-25T13:05:28.898Z,22.90
2023-07-25T13:07:57.823Z,22.90
2023-07-25T13:10:25.829Z,22.90
2023-07-25T13:12:52.956Z,23.00
2023-07-25T13:15:19.964Z,23.00
2023-07-25T13:17:46.846Z,23.20
2023-07-25T13:20:13.712Z,23.50
2023-07-25T13:22:40.801Z,23.80
2023-07-25T13:25:08.103Z,24.10
2023-07-25T13:27:35.132Z,24.10
2023-07-25T13:30:02.052Z,24.00
2023-07-25T13:32:28.875Z,23.80
2023-07-25T13:34:55.690Z,23.70
2023-07-25T13:37:22.634Z,23.60
2023-07-25T13:39:49.507Z,23.60
2023-07-25T13:42:16.313Z,23.60
2023-07-25T13:44:52.410Z,23.80
2023-07-25T13:47:19.344Z,23.80
2023-07-25T13:49:46.318Z,23.80
2023-07-25T13:52:13.337Z,23.80
2023-07-25T13:54:40.114Z,23.70
2023-07-25T13:57:07.781Z,23.60
2023-07-25T13:59:37.353Z,23.70
2023-07-25T14:02:04.507Z,23.90
2023-07-25T14:04:31.455Z,23.90
2023-07-25T14:06:58.296Z,23.70
2023-07-25T14:09:25.268Z,23.50
2023-07-25T14:11:52.259Z,23.50
2023-07-25T14:14:19.215Z,23.40
2023-07-25T14:16:46.065Z,23.20
2023-07-25T14:19:13.020Z,23.10
2023-07-25T14:21:39.946Z,23.00
2023-07-25T14:24:07.612Z,22.90
2023-07-25T14:26:37.193Z,23.00
2023-07-25T14:29:04.854Z,23.00
2023-07-25T14:31:31.829Z,23.00
2023-07-25T14:33:59.406Z,23.10
2023-07-25T14:36:26.753Z,23.00
2023-07-25T14:38:53.560Z,22.90
2023-07-25T14:41:20.726Z,22.80
2023-07-25T14:43:48.109Z,22.70
2023-07-25T14:46:16.397Z,22.70
2023-07-25T14:48:43.290Z,22.50
2023-07-25T14:51:10.325Z,22.40
2023-07-25T14:53:37.153Z,22.40
2023-07-25T14:56:04.128Z,22.30
2023-07-25T14:58:30.965Z,22.40
2023-07-25T15:00:57.990Z,22.20
2023-07-25T15:03:25.007Z,22.10
2023-07-25T15:05:51.989Z,22.10
2023-07-25T15:08:18.842Z,22.00
2023-07-25T15:10:45.853Z,21.90
2023-07-25T15:13:12.817Z,21.90
2023-07-25T15:15:39.899Z,21.90
2023-07-25T15:18:08.728Z,21.90
2023-07-25T15:20:36.059Z,21.80
2023-07-25T15:23:03.087Z,21.90
2023-07-25T15:25:29.994Z,22.00
2023-07-25T15:27:56.800Z,22.10
2023-07-25T15:30:26.440Z,22.10
2023-07-25T15:32:54.016Z,22.10
2023-07-25T15:35:21.799Z,22.20
2023-07-25T15:37:48.754Z,22.10
2023-07-25T15:40:15.665Z,22.20
2023-07-25T15:42:42.508Z,22.10
2023-07-25T15:45:09.770Z,22.00
2023-07-25T15:47:36.669Z,21.90
2023-07-25T15:50:03.908Z,22.00
2023-07-25T15:52:30.838Z,21.90
2023-07-25T15:54:58.471Z,21.80
2023-07-25T15:57:25.728Z,21.70
2023-07-25T15:59:52.693Z,21.70
2023-07-25T16:02:19.541Z,21.70
2023-07-25T16:04:46.472Z,21.80
2023-07-25T16:07:13.333Z,21.90
2023-07-25T16:09:42.324Z,21.90
2023-07-25T16:12:11.984Z,21.80
2023-07-25T16:14:38.970Z,21.60
2023-07-25T16:17:05.857Z,21.50
2023-07-25T16:19:32.658Z,21.40
2023-07-25T16:21:59.449Z,21.50
2023-07-25T16:24:26.335Z,21.60
2023-07-25T16:26:54.183Z,21.60
2023-07-25T16:29:21.145Z,21.70
2023-07-25T16:31:50.984Z,21.80
2023-07-25T16:34:18.430Z,21.90
2023-07-25T16:36:45.285Z,21.80
2023-07-25T16:39:12.287Z,21.80
2023-07-25T16:41:39.203Z,21.80
2023-07-25T16:44:06.168Z,21.80
2023-07-25T16:46:33.408Z,21.80
2023-07-25T16:49:00.416Z,21.80
2023-07-25T16:51:27.429Z,21.90
2023-07-25T16:53:54.304Z,21.90
2023-07-25T16:56:21.319Z,21.90
2023-07-25T16:58:48.275Z,21.90
2023-07-25T17:01:15.174Z,21.70
2023-07-25T17:03:42.271Z,21.70
2023-07-25T17:06:09.658Z,21.70
2023-07-25T17:08:36.657Z,21.50
2023-07-25T17:11:05.483Z,21.40
2023-07-25T17:13:32.674Z,21.30
2023-07-25T17:15:59.958Z,21.20
2023-07-25T17:18:28.218Z,21.20
2023-07-25T17:20:55.106Z,21.10
2023-07-25T17:23:22.049Z,21.10
2023-07-25T17:25:48.922Z,21.00
2023-07-25T17:28:15.964Z,20.90
2023-07-25T17:30:43.164Z,20.90
2023-07-25T17:33:10.135Z,21.00
2023-07-25T17:35:38.252Z,21.10
2023-07-25T17:38:05.815Z,21.10
2023-07-25T17:40:32.960Z,21.10
2023-07-25T17:43:00.025Z,21.00
2023-07-25T17:45:26.977Z,20.80
2023-07-25T17:47:53.889Z,20.70
2023-07-25T17:50:20.831Z,20.50
2023-07-25T17:52:47.686Z,20.40
2023-07-25T17:55:14.689Z,20.30
2023-07-25T17:57:41.530Z,20.30
2023-07-25T18:00:09.097Z,20.20
2023-07-25T18:02:36.172Z,20.30
2023-07-25T18:05:03.259Z,20.30
2023-07-25T18:07:30.234Z,20.30
2023-07-25T18:09:57.228Z,20.30
2023-07-25T18:12:24.207Z,20.30
2023-07-25T18:14:51.204Z,20.20
2023-07-25T18:17:18.145Z,20.20
2023-07-25T18:19:44.978Z,20.10
2023-07-25T18:22:11.930Z,20.10
2023-07-25T18:24:38.861Z,20.10
2023-07-25T18:27:06.002Z,20.20
2023-07-25T18:29:32.910Z,20.20
2023-07-25T18:31:59.723Z,20.20
2023-07-25T18:34:26.577Z,20.00
2023-07-25T18:36:53.724Z,19.90
2023-07-25T18:39:20.596Z,19.70
2023-07-25T18:41:47.470Z,19.60
2023-07-25T18:44:15.051Z,19.40
2023-07-25T18:46:42.021Z,19.20
2023-07-25T18:49:08.999Z,19.10
2023-07-25T18:51:35.869Z,19.00
2023-07-25T18:54:02.669Z,19.00
2023-07-25T18:58:57.214Z,18.80
2023-07-25T19:01:24.114Z,18.70
2023-07-25T19:03:51.109Z,18.70
2023-07-25T19:06:17.945Z,18.60
2023-07-25T19:08:44.727Z,18.50
2023-07-25T19:11:11.693Z,18.50
2023-07-25T19:13:38.694Z,18.40
2023-07-25T19:16:05.885Z,18.40
2023-07-25T19:18:32.863Z,18.30
2023-07-25T19:20:59.947Z,18.20
2023-07-25T19:23:27.751Z,18.10
2023-07-25T19:25:58.731Z,18.00
2023-07-25T19:28:26.567Z,17.90
2023-07-25T19:30:54.375Z,17.90
2023-07-25T19:33:21.426Z,17.80
2023-07-25T19:35:55.853Z,17.70
2023-07-25T19:38:23.770Z,17.70
2023-07-25T19:40:51.555Z,17.60
2023-07-25T19:43:18.728Z,17.50
2023-07-25T19:45:45.917Z,17.40
2023-07-25T19:48:15.701Z,17.40
2023-07-25T19:50:46.465Z,17.30
2023-07-25T19:53:16.983Z,17.20
2023-07-25T19:55:44.194Z,17.10
2023-07-25T19:58:11.168Z,17.10
2023-07-25T20:00:38.358Z,17.00
2023-07-25T20:03:06.032Z,17.00
2023-07-25T20:05:33.057Z,17.00
2023-07-25T20:07:59.871Z,16.90
2023-07-25T20:10:26.907Z,16.80
2023-07-25T20:12:53.790Z,16.80
2023-07-25T20:15:20.695Z,16.70
2023-07-25T20:17:48.334Z,16.60
2023-07-25T20:20:15.410Z,16.60
2023-07-25T20:22:42.481Z,16.50
2023-07-25T20:25:11.264Z,16.50
2023-07-25T20:27:38.654Z,16.60
2023-07-25T20:30:06.272Z,16.70
2023-07-25T20:35:00.695Z,16.30
2023-07-25T20:37:28.927Z,16.30
2023-07-25T20:39:56.502Z,16.20
2023-07-25T20:42:23.690Z,16.20
2023-07-25T20:44:51.570Z,16.20
2023-07-25T20:47:18.480Z,16.20
2023-07-25T20:49:46.269Z,16.10
2023-07-25T20:52:13.171Z,16.20
2023-07-25T20:54:40.176Z,16.10
2023-07-25T20:57:07.191Z,16.20
2023-07-25T20:59:34.085Z,16.20
2023-07-25T21:02:01.229Z,16.20
2023-07-25T21:04:29.006Z,16.20
2023-07-25T21:06:56.696Z,16.20
2023-07-25T21:09:23.918Z,16.20
2023-07-25T21:11:50.828Z,16.30
2023-07-25T21:14:17.829Z,16.30
2023-07-25T21:16:44.842Z,16.30
2023-07-25T21:19:11.912Z,16.30
2023-07-25T21:21:38.734Z,16.40
2023-07-25T21:24:06.036Z,16.40
2023-07-25T21:26:33.242Z,16.40
2023-07-25T21:29:01.402Z,16.40
2023-07-25T21:31:29.759Z,16.40
2023-07-25T21:33:58.497Z,16.50
2023-07-25T21:36:26.140Z,16.50
2023-07-25T21:38:54.792Z,16.50
2023-07-25T21:41:23.871Z,16.60
2023-07-25T21:43:50.994Z,16.50
2023-07-25T21:46:18.135Z,16.50
2023-07-25T21:48:46.656Z,16.40
2023-07-25T21:51:14.267Z,16.40
2023-07-25T21:53:43.324Z,16.30
2023-07-25T21:56:10.360Z,16.40
2023-07-25T21:58:37.364Z,16.30
2023-07-25T22:01:04.397Z,16.30
2023-07-25T22:03:33.224Z,16.40
2023-07-25T22:06:00.718Z,16.40
2023-07-25T22:08:28.074Z,16.30
2023-07-25T22:10:55.852Z,16.30
2023-07-25T22:13:23.853Z,16.20
2023-07-25T22:15:51.009Z,16.30
2023-07-25T22:18:18.214Z,16.30
2023-07-25T22:20:52.348Z,16.30
2023-07-25T22:23:20.749Z,16.30
2023-07-25T22:25:47.663Z,16.30
2023-07-25T22:28:14.653Z,16.20
2023-07-25T22:30:41.638Z,16.10
2023-07-25T22:33:08.681Z,16.10
2023-07-25T22:35:36.018Z,16.10
2023-07-25T22:38:04.974Z,16.00
2023-07-25T22:40:32.383Z,16.00
2023-07-25T22:42:59.288Z,16.00
2023-07-25T22:45:27.814Z,16.00
2023-07-25T22:47:55.368Z,16.00
2023-07-25T22:50:24.416Z,15.90
2023-07-25T22:52:51.199Z,15.80
2023-07-25T22:55:19.664Z,15.80
2023-07-25T22:57:46.650Z,15.80
2023-07-25T23:00:14.332Z,15.70
2023-07-25T23:02:41.543Z,15.70
2023-07-25T23:05:09.005Z,15.70
2023-07-25T23:07:36.085Z,15.60
2023-07-25T23:10:03.591Z,15.60
2023-07-25T23:12:30.612Z,15.60
2023-07-25T23:14:57.711Z,15.60
2023-07-25T23:17:24.729Z,15.50
2023-07-25T23:19:51.730Z,15.50
2023-07-25T23:22:18.747Z,15.50
2023-07-25T23:24:45.600Z,15.50
2023-07-25T23:27:12.538Z,15.50
2023-07-25T23:29:39.441Z,15.40
2023-07-25T23:32:07.113Z,15.40
2023-07-25T23:34:49.698Z,15.40
2023-07-25T23:37:17.393Z,15.40
2023-07-25T23:39:44.423Z,15.30
2023-07-25T23:42:11.362Z,15.30
2023-07-25T23:44:39.405Z,15.30
2023-07-25T23:47:06.838Z,15.20
2023-07-25T23:49:34.808Z,15.20
2023-07-25T23:52:02.215Z,15.20
2023-07-25T23:54:29.091Z,15.20
2023-07-25T23:56:56.106Z,15.10
2023-07-25T23:59:23.197Z,15.10
